createdAt,value
2023-01-17T00:00:06.817Z,19.60
2023-01-17T00:02:54.156Z,22.27
2023-01-17T00:05:40.601Z,22.17
2023-01-17T00:08:32.433Z,23.92
2023-01-17T00:11:00.173Z,25.13
2023-01-17T00:13:27.462Z,23.60
2023-01-17T00:15:55.085Z,25.10
2023-01-17T00:18:22.504Z,25.50
2023-01-17T00:21:08.309Z,24.85
2023-01-17T00:23:54.135Z,22.77
2023-01-17T00:26:21.870Z,21.90
2023-01-17T00:28:49.104Z,23.75
2023-01-17T00:31:17.598Z,23.35
2023-01-17T00:33:45.501Z,20.58
2023-01-17T00:36:13.931Z,21.35
2023-01-17T00:38:42.345Z,20.75
2023-01-17T00:41:15.349Z,22.55
2023-01-17T00:44:00.967Z,21.05
2023-01-17T00:46:47.526Z,21.67
2023-01-17T00:49:33.603Z,21.33
2023-01-17T00:52:19.988Z,19.92
2023-01-17T00:55:05.789Z,20.83
2023-01-17T00:57:51.905Z,18.17
2023-01-17T01:00:38.110Z,20.25
2023-01-17T01:03:29.412Z,18.80
2023-01-17T01:06:15.446Z,19.73
2023-01-17T01:09:01.739Z,21.05
2023-01-17T01:11:47.786Z,22.02
2023-01-17T01:14:34.102Z,21.38
2023-01-17T01:17:19.855Z,21.60
2023-01-17T01:20:06.049Z,23.05
2023-01-17T01:22:51.781Z,24.92
2023-01-17T01:25:38.013Z,26.08
2023-01-17T01:28:31.809Z,27.42
2023-01-17T01:31:22.558Z,26.42
2023-01-17T01:33:52.752Z,24.58
2023-01-17T01:36:20.820Z,24.83
2023-01-17T01:38:48.333Z,23.95
2023-01-17T01:41:15.994Z,25.10
2023-01-17T01:43:53.030Z,20.08
2023-01-17T01:46:41.320Z,20.67
2023-01-17T01:49:28.437Z,20.70
2023-01-17T01:52:06.037Z,20.63
2023-01-17T01:54:56.304Z,19.33
2023-01-17T01:57:31.098Z,17.92
2023-01-17T02:00:22.116Z,16.67
2023-01-17T02:02:54.395Z,16.55
2023-01-17T02:05:25.688Z,16.90
2023-01-17T02:08:05.077Z,16.92
2023-01-17T02:10:35.537Z,16.20
2023-01-17T02:13:04.008Z,17.30
2023-01-17T02:16:09.187Z,17.20
2023-01-17T02:18:53.338Z,18.67
2023-01-17T02:21:28.911Z,17.13
2023-01-17T02:24:39.408Z,17.33
2023-01-17T02:27:22.979Z,14.98
2023-01-17T02:30:11.846Z,14.13
2023-01-17T02:33:45.554Z,13.15
2023-01-17T02:36:43.596Z,12.00
2023-01-17T02:39:38.103Z,13.68
2023-01-17T02:42:15.339Z,13.73
2023-01-17T02:44:44.702Z,12.63
2023-01-17T02:47:29.069Z,12.82
2023-01-17T02:50:14.001Z,12.13
2023-01-17T02:53:14.244Z,13.82
2023-01-17T02:55:55.686Z,12.48
2023-01-17T02:58:26.201Z,13.80
2023-01-17T03:01:17.526Z,12.00
2023-01-17T03:04:37.110Z,11.48
2023-01-17T03:07:13.174Z,9.52
2023-01-17T03:09:43.666Z,10.82
2023-01-17T03:12:13.386Z,9.90
2023-01-17T03:14:41.017Z,9.75
2023-01-17T03:17:09.081Z,9.82
2023-01-17T03:19:36.696Z,9.65
2023-01-17T03:22:04.163Z,11.70
2023-01-17T03:24:31.859Z,11.93
2023-01-17T03:26:59.411Z,10.32
2023-01-17T03:29:26.955Z,9.88
2023-01-17T03:31:54.233Z,8.90
2023-01-17T03:34:21.895Z,9.38
2023-01-17T03:36:49.748Z,9.40
2023-01-17T03:39:17.330Z,9.10
2023-01-17T03:41:44.741Z,9.48
2023-01-17T03:44:12.354Z,9.37
2023-01-17T03:46:39.705Z,9.43
2023-01-17T03:49:07.314Z,9.60
2023-01-17T03:51:34.620Z,9.60
2023-01-17T03:54:02.273Z,9.50
2023-01-17T03:56:29.641Z,9.25
2023-01-17T03:58:58.633Z,9.52
2023-01-17T04:01:26.151Z,9.75
2023-01-17T04:03:54.525Z,9.73
2023-01-17T04:06:21.779Z,9.68
2023-01-17T04:08:49.546Z,9.77
2023-01-17T04:11:17.006Z,10.40
2023-01-17T04:13:44.609Z,9.68
2023-01-17T04:16:18.765Z,9.88
2023-01-17T04:18:46.391Z,10.50
2023-01-17T04:21:13.666Z,11.35
2023-01-17T04:23:41.424Z,10.10
2023-01-17T04:26:11.891Z,10.03
2023-01-17T04:28:39.582Z,11.43
2023-01-17T04:31:07.261Z,10.52
2023-01-17T04:33:34.867Z,11.63
2023-01-17T04:36:02.137Z,11.18
2023-01-17T04:38:29.681Z,10.50
2023-01-17T04:40:56.979Z,10.48
2023-01-17T04:43:24.547Z,12.43
2023-01-17T04:45:58.708Z,14.40
2023-01-17T04:48:27.371Z,16.48
2023-01-17T04:51:06.234Z,14.48
2023-01-17T04:53:33.962Z,11.48
2023-01-17T04:56:01.984Z,13.50
2023-01-17T04:58:31.102Z,13.43
2023-01-17T05:01:07.148Z,11.45
2023-01-17T05:03:35.515Z,10.45
2023-01-17T05:06:02.952Z,13.63
2023-01-17T05:08:30.665Z,12.02
2023-01-17T05:10:58.021Z,25.42
2023-01-17T05:13:25.603Z,19.30
2023-01-17T05:15:53.250Z,18.40
2023-01-17T05:18:21.005Z,17.98
2023-01-17T05:20:48.463Z,15.20
2023-01-17T05:23:16.226Z,17.25
2023-01-17T05:25:44.516Z,17.27
2023-01-17T05:28:15.023Z,17.58
2023-01-17T05:30:42.463Z,14.65
2023-01-17T05:33:10.562Z,13.73
2023-01-17T05:35:38.669Z,13.85
2023-01-17T05:38:06.291Z,14.90
2023-01-17T05:40:34.461Z,15.15
2023-01-17T05:43:05.827Z,13.13
2023-01-17T05:45:34.173Z,15.13
2023-01-17T05:48:03.095Z,11.75
2023-01-17T05:50:38.161Z,17.17
2023-01-17T05:53:10.222Z,16.73
2023-01-17T05:55:38.872Z,14.90
2023-01-17T05:58:09.262Z,15.32
2023-01-17T06:00:37.836Z,16.63
2023-01-17T06:03:05.807Z,14.48
2023-01-17T06:05:33.239Z,12.77
2023-01-17T06:08:00.872Z,13.57
2023-01-17T06:10:29.539Z,13.93
2023-01-17T06:13:10.935Z,14.75
2023-01-17T06:15:39.462Z,24.60
2023-01-17T06:18:13.539Z,50.63
2023-01-17T06:20:41.834Z,45.47
2023-01-17T06:23:14.002Z,35.00
2023-01-17T06:25:44.810Z,31.45
2023-01-17T06:28:16.582Z,26.33
2023-01-17T06:30:45.039Z,25.47
2023-01-17T06:33:13.873Z,21.45
2023-01-17T06:35:50.920Z,19.17
2023-01-17T06:38:19.199Z,18.05
2023-01-17T06:40:46.531Z,18.40
2023-01-17T06:43:14.347Z,15.50
2023-01-17T06:45:41.621Z,16.02
2023-01-17T06:48:09.227Z,15.05
2023-01-17T06:50:36.569Z,15.80
2023-01-17T06:53:06.938Z,15.32
2023-01-17T06:55:39.625Z,14.55
2023-01-17T06:58:09.511Z,15.35
2023-01-17T07:00:39.464Z,14.68
2023-01-17T07:03:27.387Z,14.88
2023-01-17T07:05:54.829Z,16.35
2023-01-17T07:08:22.621Z,16.10
2023-01-17T07:10:50.083Z,16.67
2023-01-17T07:13:17.936Z,17.27
2023-01-17T07:15:45.254Z,18.57
2023-01-17T07:18:12.956Z,19.73
2023-01-17T07:20:41.442Z,19.88
2023-01-17T07:23:09.055Z,20.05
2023-01-17T07:25:36.411Z,20.93
2023-01-17T07:28:04.221Z,23.15
2023-01-17T07:30:31.597Z,21.48
2023-01-17T07:32:59.330Z,21.63
2023-01-17T07:35:26.841Z,23.90
2023-01-17T07:37:55.119Z,23.55
2023-01-17T07:40:23.673Z,25.60
2023-01-17T07:42:51.331Z,26.23
2023-01-17T07:45:20.004Z,24.00
2023-01-17T07:47:48.937Z,22.58
2023-01-17T07:50:16.412Z,24.90
2023-01-17T07:52:48.736Z,23.05
2023-01-17T07:55:16.232Z,21.35
2023-01-17T07:57:48.309Z,20.97
2023-01-17T08:00:16.265Z,19.83
2023-01-17T08:02:43.940Z,19.55
2023-01-17T08:05:11.377Z,17.73
2023-01-17T08:07:39.051Z,17.00
2023-01-17T08:10:07.584Z,14.57
2023-01-17T08:12:36.135Z,14.52
2023-01-17T08:15:03.525Z,14.15
2023-01-17T08:17:31.413Z,12.80
2023-01-17T08:19:58.905Z,12.77
2023-01-17T08:22:26.565Z,11.30
2023-01-17T08:24:53.938Z,12.38
2023-01-17T08:27:21.536Z,12.50
2023-01-17T08:29:49.646Z,11.70
2023-01-17T08:32:17.621Z,11.75
2023-01-17T08:34:45.055Z,12.98
2023-01-17T08:37:12.864Z,13.57
2023-01-17T08:39:40.468Z,13.73
2023-01-17T08:42:08.115Z,12.85
2023-01-17T08:44:35.541Z,13.45
2023-01-17T08:47:03.229Z,13.00
2023-01-17T08:49:30.561Z,14.63
2023-01-17T08:51:58.302Z,14.90
2023-01-17T08:54:25.740Z,13.70
2023-01-17T08:56:54.998Z,13.90
2023-01-17T08:59:22.979Z,13.60
2023-01-17T09:01:52.535Z,14.93
2023-01-17T09:04:20.083Z,14.25
2023-01-17T09:06:48.632Z,12.88
2023-01-17T09:09:17.646Z,12.30
2023-01-17T09:11:45.902Z,12.23
2023-01-17T09:14:14.382Z,10.63
2023-01-17T09:16:42.106Z,10.90
2023-01-17T09:19:10.401Z,11.82
2023-01-17T09:21:38.155Z,12.40
2023-01-17T09:24:05.816Z,13.00
2023-01-17T09:26:33.843Z,12.90
2023-01-17T09:29:01.203Z,12.27
2023-01-17T09:31:29.346Z,12.38
2023-01-17T09:33:58.265Z,12.50
2023-01-17T09:36:34.873Z,13.02
2023-01-17T09:39:03.853Z,13.55
2023-01-17T09:42:01.015Z,12.75
2023-01-17T09:44:46.440Z,12.40
2023-01-17T09:47:35.618Z,12.70
2023-01-17T09:50:47.538Z,12.70
2023-01-17T09:53:21.602Z,13.23
2023-01-17T09:56:14.754Z,12.50
2023-01-17T09:59:18.551Z,12.20
2023-01-17T10:02:01.170Z,11.80
2023-01-17T10:04:59.511Z,12.82
2023-01-17T10:08:07.704Z,10.65
2023-01-17T10:11:09.235Z,10.05
2023-01-17T10:13:51.022Z,9.68
2023-01-17T10:16:31.416Z,9.10
2023-01-17T10:19:16.866Z,10.43
2023-01-17T10:22:31.179Z,9.70
2023-01-17T10:25:33.449Z,9.38
2023-01-17T10:28:12.357Z,9.60
2023-01-17T10:30:54.694Z,9.65
2023-01-17T10:33:29.896Z,8.40
2023-01-17T10:36:15.474Z,8.40
2023-01-17T10:38:50.795Z,7.20
2023-01-17T10:41:46.507Z,8.40
2023-01-17T10:44:43.539Z,7.75
2023-01-17T10:47:10.900Z,7.07
2023-01-17T10:49:53.029Z,7.78
2023-01-17T10:53:10.383Z,7.20
2023-01-17T10:55:54.038Z,7.22
2023-01-17T10:58:21.664Z,6.60
2023-01-17T11:01:02.299Z,6.78
2023-01-17T11:03:31.261Z,6.93
2023-01-17T11:06:26.234Z,6.80
2023-01-17T11:08:58.546Z,7.25
2023-01-17T11:11:32.118Z,7.25
2023-01-17T11:14:07.957Z,6.82
2023-01-17T11:16:37.437Z,7.18
2023-01-17T11:19:32.570Z,6.45
2023-01-17T11:22:05.050Z,5.85
2023-01-17T11:24:49.821Z,6.10
2023-01-17T11:27:33.490Z,5.75
2023-01-17T11:30:21.996Z,6.60
2023-01-17T11:32:58.860Z,5.68
2023-01-17T11:35:31.444Z,5.53
2023-01-17T11:38:21.758Z,5.63
2023-01-17T11:40:50.416Z,5.82
2023-01-17T11:43:25.548Z,5.78
2023-01-17T11:46:19.041Z,6.45
2023-01-17T11:48:56.604Z,5.65
2023-01-17T11:51:35.147Z,5.05
2023-01-17T11:54:28.048Z,4.80
2023-01-17T11:57:02.252Z,4.50
2023-01-17T11:59:40.408Z,4.60
2023-01-17T12:03:15.273Z,4.47
2023-01-17T12:06:28.077Z,4.72
2023-01-17T12:09:36.093Z,4.05
2023-01-17T12:12:35.010Z,4.13
2023-01-17T12:15:36.011Z,5.28
2023-01-17T12:18:42.808Z,4.28
2023-01-17T12:21:26.994Z,4.30
2023-01-17T12:24:14.052Z,4.50
2023-01-17T12:26:55.041Z,4.72
2023-01-17T12:29:58.983Z,3.83
2023-01-17T12:33:13.580Z,4.05
2023-01-17T12:35:56.537Z,5.30
2023-01-17T12:38:48.192Z,4.25
2023-01-17T12:41:41.468Z,3.90
2023-01-17T12:44:16.213Z,4.13
2023-01-17T12:47:01.367Z,4.40
2023-01-17T12:49:50.732Z,4.40
2023-01-17T12:52:43.322Z,4.88
2023-01-17T12:55:20.295Z,4.18
2023-01-17T12:58:01.584Z,3.65
2023-01-17T13:00:33.135Z,4.07
2023-01-17T13:03:48.691Z,4.00
2023-01-17T13:06:44.545Z,2.90
2023-01-17T13:09:19.562Z,3.05
2023-01-17T13:12:13.630Z,2.80
2023-01-17T13:14:41.823Z,3.00
2023-01-17T13:17:32.944Z,3.22
2023-01-17T13:20:03.978Z,3.00
2023-01-17T13:22:32.970Z,3.25
2023-01-17T13:25:51.316Z,2.50
2023-01-17T13:29:09.581Z,2.50
2023-01-17T13:32:14.059Z,2.40
2023-01-17T13:35:13.460Z,2.83
2023-01-17T13:37:59.726Z,3.10
2023-01-17T13:41:04.288Z,2.83
2023-01-17T13:43:40.650Z,2.75
2023-01-17T13:46:08.338Z,3.17
2023-01-17T13:48:38.567Z,3.22
2023-01-17T13:51:11.390Z,3.20
2023-01-17T13:53:39.193Z,2.85
2023-01-17T13:56:28.858Z,3.00
2023-01-17T13:59:03.837Z,3.97
2023-01-17T14:01:38.869Z,3.92
2023-01-17T14:04:09.559Z,3.90
2023-01-17T14:06:49.620Z,3.80
2023-01-17T14:09:25.266Z,5.60
2023-01-17T14:12:00.822Z,5.25
2023-01-17T14:14:40.423Z,5.00
2023-01-17T14:17:23.203Z,3.63
2023-01-17T14:20:02.001Z,4.80
2023-01-17T14:22:41.335Z,4.35
2023-01-17T14:25:15.335Z,3.53
2023-01-17T14:27:42.602Z,4.40
2023-01-17T14:30:34.658Z,4.15
2023-01-17T14:33:02.019Z,5.03
2023-01-17T14:35:58.359Z,4.72
2023-01-17T14:38:32.802Z,4.40
2023-01-17T14:41:28.471Z,4.82
2023-01-17T14:43:59.719Z,5.03
2023-01-17T14:46:32.398Z,4.70
2023-01-17T14:49:25.507Z,4.93
2023-01-17T14:52:01.788Z,5.32
2023-01-17T14:54:29.714Z,5.50
2023-01-17T14:57:28.997Z,5.47
2023-01-17T15:00:21.690Z,7.10
2023-01-17T15:02:50.955Z,6.28
2023-01-17T15:05:22.065Z,6.15
2023-01-17T15:07:54.086Z,6.10
2023-01-17T15:10:30.031Z,7.55
2023-01-17T15:13:07.811Z,7.40
2023-01-17T15:15:40.200Z,8.02
2023-01-17T15:18:13.868Z,9.75
2023-01-17T15:20:55.958Z,8.45
2023-01-17T15:23:30.639Z,7.43
2023-01-17T15:25:59.018Z,6.22
2023-01-17T15:28:27.167Z,5.82
2023-01-17T15:31:16.986Z,5.63
2023-01-17T15:33:48.373Z,6.00
2023-01-17T15:36:21.885Z,6.00
2023-01-17T15:39:22.551Z,5.75
2023-01-17T15:41:56.217Z,5.15
2023-01-17T15:44:49.137Z,6.13
2023-01-17T15:47:40.382Z,5.72
2023-01-17T15:50:30.862Z,5.65
2023-01-17T15:53:01.153Z,6.63
2023-01-17T15:55:38.585Z,5.82
2023-01-17T15:58:28.135Z,5.80
2023-01-17T16:00:56.947Z,6.38
2023-01-17T16:03:32.029Z,6.95
2023-01-17T16:06:03.062Z,6.20
2023-01-17T16:08:52.556Z,6.65
2023-01-17T16:11:21.842Z,6.97
2023-01-17T16:13:49.449Z,6.32
2023-01-17T16:16:24.692Z,6.70
2023-01-17T16:19:02.268Z,5.95
2023-01-17T16:21:32.148Z,6.65
2023-01-17T16:24:00.636Z,7.40
2023-01-17T16:26:29.493Z,6.97
2023-01-17T16:28:57.365Z,7.30
2023-01-17T16:31:25.099Z,7.47
2023-01-17T16:33:52.562Z,7.32
2023-01-17T16:36:23.161Z,6.65
2023-01-17T16:38:52.494Z,8.40
2023-01-17T16:41:21.060Z,12.57
2023-01-17T16:44:02.877Z,13.77
2023-01-17T16:46:30.778Z,13.20
2023-01-17T16:49:00.572Z,12.98
2023-01-17T16:51:28.238Z,9.55
2023-01-17T16:53:55.834Z,9.70
2023-01-17T16:56:23.566Z,10.95
2023-01-17T16:58:53.344Z,10.13
2023-01-17T17:01:22.755Z,12.00
2023-01-17T17:03:50.661Z,12.93
2023-01-17T17:06:18.375Z,10.40
2023-01-17T17:08:46.033Z,9.13
2023-01-17T17:11:21.471Z,8.88
2023-01-17T17:13:51.080Z,7.18
2023-01-17T17:16:26.646Z,8.15
2023-01-17T17:19:06.280Z,7.63
2023-01-17T17:21:37.655Z,8.43
2023-01-17T17:24:05.383Z,8.00
2023-01-17T17:26:36.738Z,8.27
2023-01-17T17:29:07.508Z,8.40
2023-01-17T17:31:35.348Z,8.77
2023-01-17T17:34:04.736Z,8.60
2023-01-17T17:36:32.485Z,9.23
2023-01-17T17:39:03.743Z,12.35
2023-01-17T17:41:34.774Z,15.75
2023-01-17T17:44:04.347Z,14.98
2023-01-17T17:46:33.923Z,17.23
2023-01-17T17:49:01.940Z,16.73
2023-01-17T17:51:40.141Z,13.38
2023-01-17T17:54:11.963Z,11.73
2023-01-17T17:56:40.933Z,12.07
2023-01-17T17:59:09.803Z,11.65
2023-01-17T18:01:41.097Z,11.07
2023-01-17T18:04:11.749Z,11.70
2023-01-17T18:06:40.039Z,10.90
2023-01-17T18:09:10.612Z,10.38
2023-01-17T18:11:41.192Z,11.32
2023-01-17T18:14:13.815Z,10.52
2023-01-17T18:16:44.938Z,10.60
2023-01-17T18:19:22.794Z,10.43
2023-01-17T18:21:51.537Z,11.77
2023-01-17T18:24:23.102Z,11.60
2023-01-17T18:26:57.671Z,10.57
2023-01-17T18:29:27.176Z,9.45
2023-01-17T18:31:55.861Z,10.75
2023-01-17T18:34:28.590Z,9.23
2023-01-17T18:36:57.075Z,10.70
2023-01-17T18:39:29.597Z,13.93
2023-01-17T18:41:57.927Z,10.43
2023-01-17T18:44:27.450Z,10.88
2023-01-17T18:46:55.615Z,11.15
2023-01-17T18:49:23.024Z,11.52
2023-01-17T18:51:51.484Z,10.70
2023-01-17T18:54:20.668Z,11.00
2023-01-17T18:56:48.796Z,9.60
2023-01-17T18:59:18.587Z,10.15
2023-01-17T19:01:47.564Z,9.57
2023-01-17T19:04:17.468Z,9.35
2023-01-17T19:06:47.729Z,10.77
2023-01-17T19:09:17.021Z,9.90
2023-01-17T19:11:46.280Z,9.13
2023-01-17T19:14:14.655Z,10.50
2023-01-17T19:16:43.246Z,11.20
2023-01-17T19:19:14.860Z,10.48
2023-01-17T19:21:42.737Z,10.32
2023-01-17T19:24:13.442Z,11.80
2023-01-17T19:26:42.964Z,11.07
2023-01-17T19:29:10.919Z,11.98
2023-01-17T19:31:43.312Z,13.45
2023-01-17T19:34:13.894Z,14.88
2023-01-17T19:36:42.697Z,25.95
2023-01-17T19:39:10.282Z,21.05
2023-01-17T19:41:45.860Z,23.08
2023-01-17T19:44:15.250Z,20.85
2023-01-17T19:46:44.296Z,21.95
2023-01-17T19:49:11.762Z,18.10
2023-01-17T19:51:40.013Z,15.90
2023-01-17T19:54:08.560Z,16.92
2023-01-17T19:56:36.811Z,17.33
2023-01-17T19:59:04.594Z,15.05
2023-01-17T20:01:35.151Z,15.57
2023-01-17T20:04:04.095Z,14.80
2023-01-17T20:06:36.964Z,16.70
2023-01-17T20:09:06.476Z,15.60
2023-01-17T20:11:34.774Z,15.63
2023-01-17T20:14:02.672Z,18.52
2023-01-17T20:16:32.767Z,17.67
2023-01-17T20:19:02.708Z,18.90
2023-01-17T20:21:33.173Z,20.67
2023-01-17T20:24:03.469Z,20.38
2023-01-17T20:26:35.294Z,20.15
2023-01-17T20:29:15.846Z,21.20
2023-01-17T20:31:45.408Z,23.02
2023-01-17T20:34:14.639Z,24.15
2023-01-17T20:36:42.503Z,24.80
2023-01-17T20:39:14.616Z,22.90
2023-01-17T20:41:46.285Z,24.52
2023-01-17T20:44:15.865Z,26.40
2023-01-17T20:46:44.353Z,24.38
2023-01-17T20:49:19.515Z,23.30
2023-01-17T20:51:48.354Z,25.20
2023-01-17T20:54:19.070Z,22.65
2023-01-17T20:56:47.838Z,22.23
2023-01-17T20:59:22.618Z,21.38
2023-01-17T21:01:51.034Z,20.70
2023-01-17T21:04:25.691Z,19.50
2023-01-17T21:06:53.609Z,20.55
2023-01-17T21:09:22.049Z,21.00
2023-01-17T21:11:50.619Z,21.90
2023-01-17T21:14:18.068Z,23.90
2023-01-17T21:16:45.654Z,24.77
2023-01-17T21:19:15.046Z,25.95
2023-01-17T21:21:43.104Z,25.75
2023-01-17T21:24:16.306Z,29.27
2023-01-17T21:26:45.743Z,33.70
2023-01-17T21:29:16.224Z,28.83
2023-01-17T21:31:45.273Z,30.58
2023-01-17T21:34:13.853Z,27.92
2023-01-17T21:36:43.009Z,25.80
2023-01-17T21:39:19.886Z,24.35
2023-01-17T21:41:50.858Z,26.00
2023-01-17T21:44:23.697Z,24.70
2023-01-17T21:46:55.098Z,24.02
2023-01-17T21:49:23.791Z,23.20
2023-01-17T21:51:54.393Z,25.52
2023-01-17T21:54:46.660Z,26.27
2023-01-17T21:57:39.833Z,25.20
2023-01-17T22:00:14.620Z,23.23
2023-01-17T22:02:46.515Z,24.38
2023-01-17T22:05:16.892Z,25.80
2023-01-17T22:08:05.119Z,36.35
2023-01-17T22:10:33.020Z,31.10
2023-01-17T22:13:00.989Z,33.65
2023-01-17T22:15:28.303Z,34.40
2023-01-17T22:17:56.262Z,32.95
2023-01-17T22:20:23.981Z,36.58
2023-01-17T22:22:51.541Z,38.92
2023-01-17T22:25:18.914Z,41.72
2023-01-17T22:27:46.660Z,34.53
2023-01-17T22:30:14.400Z,39.65
2023-01-17T22:32:42.229Z,43.05
2023-01-17T22:35:09.734Z,42.28
2023-01-17T22:37:37.561Z,36.75
2023-01-17T22:40:06.075Z,35.78
2023-01-17T22:42:34.928Z,34.40
2023-01-17T22:45:02.745Z,32.03
2023-01-17T22:47:31.013Z,31.33
2023-01-17T22:49:58.951Z,28.15
2023-01-17T22:52:26.981Z,28.15
2023-01-17T22:54:54.581Z,29.98
2023-01-17T22:57:23.282Z,29.15
2023-01-17T22:59:51.331Z,29.48
2023-01-17T23:02:19.013Z,31.05
2023-01-17T23:04:47.735Z,32.35
2023-01-17T23:07:16.404Z,30.45
2023-01-17T23:09:44.642Z,30.27
2023-01-17T23:12:12.291Z,30.23
2023-01-17T23:14:57.987Z,27.42
2023-01-17T23:17:44.287Z,26.90
2023-01-17T23:20:21.619Z,27.20
2023-01-17T23:22:49.287Z,25.60
2023-01-17T23:25:16.633Z,24.63
2023-01-17T23:28:05.617Z,24.90
2023-01-17T23:30:40.260Z,24.25
2023-01-17T23:33:15.192Z,24.25
2023-01-17T23:35:45.412Z,22.80
2023-01-17T23:38:29.461Z,25.48
2023-01-17T23:41:25.743Z,22.92
2023-01-17T23:43:59.028Z,23.20
2023-01-17T23:46:27.348Z,23.65
2023-01-17T23:48:55.369Z,23.52
2023-01-17T23:51:23.017Z,27.13
2023-01-17T23:53:55.273Z,26.65
2023-01-17T23:56:24.695Z,28.58
2023-01-17T23:58:52.287Z,28.25
